createdAt,value
2018-07-19T00:00:16.046Z,3.60
2018-07-19T00:02:44.666Z,4.20
2018-07-19T00:05:13.284Z,3.57
2018-07-19T00:07:41.884Z,4.77
2018-07-19T00:10:10.602Z,3.60
2018-07-19T00:12:39.411Z,4.47
2018-07-19T00:15:08.240Z,3.90
2018-07-19T00:17:37.179Z,4.10
2018-07-19T00:20:06.290Z,3.87
2018-07-19T00:22:35.336Z,3.50
2018-07-19T00:25:03.965Z,3.80
2018-07-19T00:27:32.794Z,3.90
2018-07-19T00:30:01.193Z,3.20
2018-07-19T00:32:30.011Z,3.53
2018-07-19T00:34:58.812Z,3.70
2018-07-19T00:37:27.469Z,3.60
2018-07-19T00:39:56.251Z,4.23
2018-07-19T00:42:25.105Z,4.47
2018-07-19T00:44:54.025Z,3.80
2018-07-19T00:47:22.903Z,3.90
2018-07-19T00:49:51.841Z,3.83
2018-07-19T00:52:20.661Z,3.93
2018-07-19T00:54:49.681Z,3.30
2018-07-19T00:57:18.379Z,3.20
2018-07-19T00:59:47.953Z,2.83
2018-07-19T01:02:16.537Z,3.37
2018-07-19T01:04:45.155Z,3.37
2018-07-19T01:10:06.553Z,4.23
2018-07-19T01:12:35.312Z,3.70
2018-07-19T01:15:16.310Z,3.70
2018-07-19T01:17:45.528Z,3.60
2018-07-19T01:20:14.408Z,3.97
2018-07-19T01:22:43.264Z,4.30
2018-07-19T01:25:12.005Z,4.47
2018-07-19T01:27:40.786Z,3.83
2018-07-19T01:30:09.664Z,4.07
2018-07-19T01:32:38.395Z,3.20
2018-07-19T01:35:07.318Z,3.60
2018-07-19T01:37:35.998Z,3.90
2018-07-19T01:40:04.643Z,3.40
2018-07-19T01:42:37.367Z,3.93
2018-07-19T01:45:07.362Z,4.03
2018-07-19T01:47:36.070Z,3.60
2018-07-19T01:50:06.147Z,3.90
2018-07-19T01:52:35.046Z,3.67
2018-07-19T01:55:04.224Z,3.60
2018-07-19T01:57:34.066Z,3.80
2018-07-19T02:00:02.822Z,4.20
2018-07-19T02:02:31.499Z,4.03
2018-07-19T02:05:00.277Z,4.63
2018-07-19T02:07:29.407Z,4.57
2018-07-19T02:09:58.297Z,3.57
2018-07-19T02:12:27.008Z,4.87
2018-07-19T02:14:55.701Z,4.57
2018-07-19T02:17:24.470Z,4.43
2018-07-19T02:19:53.375Z,4.43
2018-07-19T02:22:22.146Z,4.30
2018-07-19T02:24:50.885Z,4.40
2018-07-19T02:27:19.483Z,3.60
2018-07-19T02:29:48.402Z,3.73
2018-07-19T02:32:17.042Z,4.13
2018-07-19T02:34:45.899Z,3.90
2018-07-19T02:37:14.597Z,3.87
2018-07-19T02:39:42.895Z,4.50
2018-07-19T02:42:11.817Z,3.80
2018-07-19T02:44:40.734Z,4.57
2018-07-19T02:47:09.900Z,5.30
2018-07-19T02:49:38.788Z,4.83
2018-07-19T02:52:07.748Z,4.60
2018-07-19T02:54:36.466Z,4.10
2018-07-19T02:57:05.303Z,4.80
2018-07-19T02:59:34.022Z,5.00
2018-07-19T03:02:02.643Z,4.60
2018-07-19T03:04:30.977Z,4.77
2018-07-19T03:06:59.676Z,5.20
2018-07-19T03:09:28.313Z,5.67
2018-07-19T03:11:56.993Z,4.67
2018-07-19T03:14:25.591Z,4.17
2018-07-19T03:16:54.208Z,4.73
2018-07-19T03:19:23.794Z,4.60
2018-07-19T03:21:53.558Z,4.87
2018-07-19T03:24:25.500Z,4.47
2018-07-19T03:30:07.577Z,5.13
2018-07-19T03:32:39.275Z,5.23
2018-07-19T03:35:08.532Z,4.90
2018-07-19T03:37:48.330Z,4.90
2018-07-19T03:40:17.512Z,5.43
2018-07-19T03:42:46.812Z,5.10
2018-07-19T03:45:16.655Z,5.30
2018-07-19T03:47:51.656Z,5.10
2018-07-19T03:50:21.234Z,5.17
2018-07-19T03:52:50.855Z,4.97
2018-07-19T03:55:20.579Z,5.80
2018-07-19T03:57:50.569Z,4.67
2018-07-19T04:00:20.191Z,5.27
2018-07-19T04:02:49.743Z,4.87
2018-07-19T04:05:19.509Z,5.07
2018-07-19T04:07:50.755Z,5.60
2018-07-19T04:10:30.706Z,5.97
2018-07-19T04:13:00.217Z,4.30
2018-07-19T04:15:29.930Z,5.70
2018-07-19T04:17:59.634Z,5.00
2018-07-19T04:20:32.878Z,5.27
2018-07-19T04:29:05.948Z,5.27
2018-07-19T04:31:36.479Z,5.30
2018-07-19T04:34:06.597Z,5.13
2018-07-19T04:36:36.065Z,5.40
2018-07-19T04:39:06.915Z,5.50
2018-07-19T04:41:36.649Z,5.70
2018-07-19T04:44:06.573Z,5.20
2018-07-19T05:01:18.202Z,5.80
2018-07-19T05:05:38.340Z,5.13
2018-07-19T05:08:08.527Z,4.83
2018-07-19T05:10:38.091Z,5.40
2018-07-19T05:13:08.050Z,6.47
2018-07-19T05:15:37.686Z,4.83
2018-07-19T05:22:46.227Z,4.53
2018-07-19T05:25:15.629Z,5.43
2018-07-19T05:27:45.545Z,5.17
2018-07-19T05:30:15.245Z,5.43
2018-07-19T05:32:44.082Z,5.67
2018-07-19T05:35:20.653Z,5.37
2018-07-19T05:46:01.378Z,5.50
2018-07-19T05:48:30.884Z,5.30
2018-07-19T05:51:01.631Z,5.70
2018-07-19T05:55:56.943Z,4.97
2018-07-19T06:01:08.141Z,5.00
2018-07-19T06:03:38.099Z,5.97
2018-07-19T06:06:15.078Z,5.63
2018-07-19T06:08:45.503Z,4.53
2018-07-19T06:11:16.651Z,5.50
2018-07-19T06:13:50.246Z,5.80
2018-07-19T06:16:21.083Z,5.20
2018-07-19T06:18:58.168Z,5.90
2018-07-19T06:21:28.350Z,5.07
2018-07-19T06:35:39.330Z,5.53
2018-07-19T06:38:10.067Z,4.63
2018-07-19T06:44:18.069Z,4.53
2018-07-19T07:07:40.348Z,4.13
2018-07-19T07:13:04.657Z,3.83
2018-07-19T07:15:50.237Z,4.00
2018-07-19T07:30:45.009Z,3.40
2018-07-19T07:33:30.590Z,4.30
2018-07-19T07:42:20.178Z,4.17
2018-07-19T07:44:52.793Z,4.23
2018-07-19T07:47:23.528Z,4.30
2018-07-19T07:49:54.087Z,4.27
2018-07-19T07:52:39.333Z,5.93
2018-07-19T08:08:04.089Z,5.30
2018-07-19T08:10:33.596Z,4.57
2018-07-19T08:13:03.002Z,5.80
2018-07-19T08:15:31.997Z,4.67
2018-07-19T08:18:01.050Z,4.57
2018-07-19T08:20:30.489Z,4.73
2018-07-19T08:22:59.681Z,4.57
2018-07-19T08:25:30.210Z,4.27
2018-07-19T08:28:00.368Z,4.23
2018-07-19T08:49:26.064Z,3.30
2018-07-19T08:51:56.543Z,2.93
2018-07-19T08:54:35.295Z,3.60
2018-07-19T08:57:04.462Z,2.67
2018-07-19T08:59:34.118Z,3.60
2018-07-19T09:13:56.125Z,3.60
2018-07-19T09:16:43.919Z,3.60
2018-07-19T09:21:23.307Z,4.03
2018-07-19T09:23:53.986Z,3.57
2018-07-19T09:27:01.704Z,3.50
2018-07-19T09:30:13.706Z,3.63
2018-07-19T09:38:10.280Z,4.17
2018-07-19T09:47:15.939Z,4.23
2018-07-19T09:49:51.701Z,3.17
2018-07-19T09:55:13.847Z,4.10
